Latest Weather Observations for Forrest

IDW60801

Issued at 7:05 pm WST Sunday 20 April 2014 (issued every 30 minutes, with the page automatically refreshed every 10 minutes)

About weather observations | Map of weather stations | Latest weather observations for WA | Other Formats
Station Details ID: 011052 Name: FORREST Lat: -30.85 Lon: 128.11 Height: 159.0 m
Data from the previous 72 hours. | See also: Recent months at Forrest
Date/Time
WST
Temp
°C
App
Temp
°C
Dew
Point
Rel
Hum
%
Delta-T
°C
Wind Press
QNH
hPa
Press
MSL
hPa
Rain
since 9 am
mm
Dir
 
Spd
km/h
Gust
km/h
Spd
kts
Gust
kts
20/07:00pm 22.5 17.2 2.1 26 9.7 N 19 20 10 11 1010.7 - 0.0
20/06:30pm 23.0 18.5 1.9 25 10.0 N 15 15 8 8 1010.7 - 0.0
20/06:00pm 24.7 20.1 1.6 22 11.0 N 15 15 8 8 1010.5 1010.1 0.0
20/05:30pm 26.4 21.7 0.9 19 12.1 N 15 17 8 9 1010.5 - 0.0
20/05:00pm 29.2 24.0 -0.1 15 14.0 NNW 17 20 9 11 1010.4 - 0.0
20/04:30pm 30.9 25.6 -0.7 13 15.1 NNW 17 24 9 13 1010.2 - 0.0
20/04:00pm 32.4 26.0 -1.8 11 16.2 NW 22 30 12 16 1010.2 - 0.0
20/03:30pm 33.1 25.8 -2.6 10 16.8 NW 26 33 14 18 1010.2 - 0.0
20/03:00pm 33.1 25.8 -2.6 10 16.8 NW 26 35 14 19 1010.2 1009.8 0.0
20/02:30pm 33.0 25.7 -2.6 10 16.7 NNW 26 33 14 18 1010.2 - 0.0
20/02:00pm 33.7 26.9 -2.1 10 17.1 NNW 24 39 13 21 1010.4 - 0.0
20/01:30pm 33.9 26.7 -2.0 10 17.2 NNW 26 35 14 19 1010.5 - 0.0
20/01:00pm 34.2 26.3 -1.7 10 17.3 NW 30 39 16 21 1010.8 - 0.0
20/12:30pm 33.8 26.4 -0.7 11 16.8 NW 28 41 15 22 1011.2 - 0.0
20/12:00pm 33.6 25.4 -0.9 11 16.8 NW 32 41 17 22 1011.5 1011.2 0.0
20/11:30am 33.6 25.4 0.3 12 16.5 NW 33 46 18 25 1012.1 - 0.0
20/11:00am 32.8 25.0 1.8 14 15.7 NNW 32 41 17 22 1012.7 - 0.0
20/10:30am 31.4 24.0 1.7 15 14.8 NNW 30 39 16 21 1013.3 - 0.0
20/10:00am 30.2 24.2 3.3 18 13.7 NNW 24 33 13 18 1013.8 - 0.0
20/09:30am 28.2 22.4 4.5 22 12.2 NNW 24 33 13 18 1014.1 - 0.0
20/09:00am 27.1 20.4 3.6 22 11.8 NNW 28 35 15 19 1014.3 1013.9 0.0
20/08:30am 26.0 20.1 3.9 24 11.1 NNW 24 32 13 17 1014.6 - 0.0
20/08:00am 23.2 18.9 5.1 31 9.1 NNW 17 24 9 13 1014.9 - 0.0
20/07:30am 20.1 17.0 5.7 39 7.2 N 11 13 6 7 1015.0 - 0.0
20/07:00am 16.5 13.9 6.3 51 5.0 NNE 9 11 5 6 1015.0 - 0.0
20/06:30am 13.7 11.0 5.8 59 3.8 NE 9 13 5 7 1014.9 - 0.0
20/06:00am 12.0 8.4 5.2 63 3.2 NE 13 15 7 8 1014.7 1014.3 0.0
20/05:30am 12.4 9.2 5.3 62 3.3 NE 11 15 6 8 1014.4 - 0.0
20/05:00am 12.9 9.4 5.3 60 3.6 ENE 13 15 7 8 1014.3 - 0.0
20/04:30am 13.1 9.9 5.3 59 3.7 NE 11 13 6 7 1014.2 - 0.0
20/04:00am 13.5 10.0 5.4 58 3.8 NE 13 17 7 9 1014.0 - 0.0
20/03:30am 14.0 10.4 5.1 55 4.2 NE 13 15 7 8 1013.9 - 0.0
20/03:00am 14.3 10.7 5.1 54 4.3 NE 13 15 7 8 1013.9 1013.5 0.0
20/02:30am 14.5 10.9 5.0 53 4.5 ENE 13 17 7 9 1014.0 - 0.0
20/02:00am 14.8 11.2 5.1 52 4.6 ENE 13 17 7 9 1014.3 - 0.0
20/01:30am 14.9 11.7 4.9 51 4.7 ENE 11 15 6 8 1014.4 - 0.0
20/01:00am 15.1 11.9 5.0 51 4.8 ENE 11 13 6 7 1014.6 - 0.0
20/12:30am 15.0 12.3 5.5 53 4.5 ENE 9 13 5 7 1014.6 - 0.0
20/12:00am 15.6 12.9 5.8 52 4.7 ENE 9 11 5 6 1014.7 1014.3 0.0
 
Date/Time
WST
Temp
°C
App
Temp
°C
Dew
Point
Rel
Hum
%
Delta-T
°C
Wind Press
QNH
hPa
Press
MSL
hPa
Rain
since 9 am
mm
Dir
 
Spd
km/h
Gust
km/h
Spd
kts
Gust
kts
19/11:30pm 16.3 12.8 5.6 49 5.2 E 13 15 7 8 1014.8 - 0.0
19/11:00pm 15.8 12.9 4.8 48 5.2 E 9 11 5 6 1014.7 - 0.0
19/10:30pm 16.2 13.0 4.9 47 5.4 ENE 11 13 6 7 1014.8 - 0.0
19/10:00pm 16.7 13.5 5.0 46 5.6 ENE 11 13 6 7 1015.1 - 0.0
19/09:30pm 17.4 14.1 4.7 43 6.1 ENE 11 15 6 8 1015.3 - 0.0
19/09:00pm 18.7 15.4 4.8 40 6.7 E 11 13 6 7 1015.3 1014.9 0.0
19/08:30pm 19.3 16.4 4.6 38 7.1 E 9 15 5 8 1015.4 - 0.0
19/08:00pm 21.1 17.4 4.6 34 8.1 ESE 13 15 7 8 1015.4 - 0.0
19/07:30pm 21.5 18.3 5.0 34 8.2 SE 11 15 6 8 1015.3 - 0.0
19/07:00pm 23.0 19.7 4.5 30 9.2 SE 11 15 6 8 1015.2 - 0.0
19/06:30pm 23.9 20.3 4.8 29 9.6 SSE 13 17 7 9 1015.0 - 0.0
19/06:00pm 24.0 20.7 4.4 28 9.8 NNE 11 13 6 7 1014.7 1014.3 0.0
19/05:30pm 25.1 21.6 3.7 25 10.6 N 11 13 6 7 1014.6 - 0.0
19/05:00pm 27.8 24.3 3.5 21 12.2 N 11 13 6 7 1014.5 - 0.0
19/04:30pm 29.9 25.3 1.4 16 14.0 NNW 15 19 8 10 1014.3 - 0.0
19/04:00pm 30.2 25.5 0.7 15 14.4 NW 15 22 8 12 1014.5 - 0.0
19/03:30pm 31.0 26.0 1.4 15 14.7 WNW 17 22 9 12 1014.6 - 0.0
19/03:00pm 31.1 27.6 1.4 15 14.7 NW 9 15 5 8 1014.6 1014.2 0.0
19/02:30pm 31.0 25.4 1.4 15 14.7 NW 20 28 11 15 1014.6 - 0.0
19/02:00pm 31.0 25.8 2.3 16 14.5 NW 19 28 10 15 1014.8 - 0.0
19/01:30pm 31.3 26.3 3.4 17 14.3 W 19 26 10 14 1015.1 - 0.0
19/01:00pm 30.6 25.8 4.4 19 13.6 NNW 19 33 10 18 1015.5 - 0.0
19/12:30pm 30.2 26.4 7.4 24 12.4 N 17 22 9 12 1015.8 - 0.0
19/12:00pm 28.8 24.9 8.5 28 11.2 NNW 19 26 10 14 1016.4 1016.0 0.0
19/11:30am 28.9 25.2 9.6 30 10.9 N 19 30 10 16 1017.2 - 0.0
19/11:00am 27.8 24.6 11.4 36 9.5 NNE 19 28 10 15 1018.0 - 0.0
19/10:30am 26.0 23.9 12.5 43 7.9 NNE 15 24 8 13 1018.6 - 0.0
19/10:00am 23.9 22.2 13.7 53 6.0 NE 15 20 8 11 1019.2 - 0.0
19/09:30am 21.7 20.2 14.1 62 4.5 NNE 15 20 8 11 1019.8 - 0.0
19/09:00am 19.3 18.4 15.8 80 2.1 NE 15 22 8 12 1020.1 1019.7 0.0
19/08:30am 17.1 16.7 17.1 100 0.0 NE 15 19 8 10 1020.6 - 0.0
19/08:00am 15.8 - 16.0 - - NE 19 20 10 11 1020.8 - 0.0
19/07:30am 14.9 - 15.1 - - NE 19 24 10 13 1020.8 - 0.0
19/07:00am 14.5 - 14.7 - - NE 19 22 10 12 1020.9 - 0.0
19/06:30am 14.4 - 14.6 - - ENE 19 26 10 14 1020.5 - 0.0
19/06:00am 14.4 - 14.6 - - E 19 28 10 15 1020.5 1020.1 0.0
19/05:30am 13.2 - 13.4 - - E 13 15 7 8 1020.4 - 0.0
19/05:00am 13.0 - 13.2 - - ENE 11 13 6 7 1020.6 - 0.0
19/04:30am 13.5 12.9 13.5 100 0.0 ENE 9 9 5 5 1020.7 - 0.0
19/04:00am 13.9 13.4 13.9 100 0.0 ENE 9 9 5 5 1020.6 - 0.0
19/03:30am 14.5 13.9 14.5 100 0.0 ENE 11 13 6 7 1020.5 - 0.0
19/03:00am 15.3 13.8 15.3 100 0.0 ENE 17 20 9 11 1020.6 1020.2 0.0
19/02:30am 15.4 14.3 15.4 100 0.0 ENE 15 17 8 9 1020.5 - 0.0
19/02:00am 16.2 14.1 16.2 100 0.0 ENE 22 28 12 15 1020.6 - 0.0
19/01:30am 16.0 13.8 16.0 100 0.0 ENE 22 28 12 15 1020.8 - 0.0
19/01:00am 16.1 13.6 16.1 100 0.0 ENE 24 30 13 16 1020.8 - 0.0
19/12:30am 15.6 14.6 15.6 100 0.0 E 15 17 8 9 1021.0 - 0.0
19/12:00am 15.7 15.1 15.7 100 0.0 E 13 19 7 10 1021.3 1020.9 0.0
 
Date/Time
WST
Temp
°C
App
Temp
°C
Dew
Point
Rel
Hum
%
Delta-T
°C
Wind Press
QNH
hPa
Press
MSL
hPa
Rain
since 9 am
mm
Dir
 
Spd
km/h
Gust
km/h
Spd
kts
Gust
kts
18/11:30pm 16.0 15.1 15.8 99 0.1 E 15 19 8 10 1021.3 - 0.0
18/11:00pm 16.3 15.1 16.1 99 0.1 E 17 20 9 11 1021.4 - 0.0
18/10:30pm 16.5 15.4 16.3 99 0.1 E 17 20 9 11 1021.6 - 0.0
18/10:00pm 16.9 15.9 16.6 98 0.2 E 17 20 9 11 1022.0 - 0.0
18/09:30pm 17.2 15.9 16.9 98 0.2 E 19 22 10 12 1022.2 - 0.0
18/09:00pm 17.5 16.4 17.2 98 0.2 ESE 19 26 10 14 1022.3 1022.0 0.0
18/08:30pm 17.9 16.5 16.9 94 0.6 ESE 20 30 11 16 1022.3 - 0.0
18/08:00pm 18.4 15.8 15.8 85 1.5 ESE 24 32 13 17 1022.2 - 0.0
18/07:30pm 19.1 16.2 15.2 78 2.3 SE 24 35 13 19 1022.0 - 0.0
18/07:00pm 19.8 17.5 14.6 72 3.1 SE 20 26 11 14 1021.7 - 0.0
18/06:30pm 20.7 17.6 14.6 68 3.6 SE 24 30 13 16 1021.5 - 0.0
18/06:00pm 21.9 19.7 14.5 63 4.4 SE 19 24 10 13 1021.4 1021.0 0.0
18/05:30pm 23.1 21.3 14.4 58 5.2 SSE 17 24 9 13 1020.9 - 0.0
18/05:00pm 24.5 22.1 14.3 53 6.1 SSE 20 28 11 15 1020.6 - 0.0
18/04:30pm 25.9 23.4 13.4 46 7.4 S 19 30 10 16 1020.3 - 0.0
18/04:00pm 26.9 24.7 13.3 43 8.1 SSE 17 26 9 14 1020.3 - 0.0
18/03:30pm 27.4 26.1 12.6 40 8.7 S 11 19 6 10 1020.4 - 0.0
18/03:00pm 27.6 25.6 12.8 40 8.7 SSE 15 24 8 13 1020.4 1020.0 0.0
18/02:30pm 27.3 24.9 12.5 40 8.7 SSE 17 22 9 12 1020.6 - 0.0
18/02:00pm 27.4 25.9 13.0 41 8.5 SSE 13 19 7 10 1020.7 - 0.0
18/01:30pm 27.8 27.0 13.0 40 8.8 SSW 9 20 5 11 1020.9 - 0.0
18/01:00pm 27.2 25.6 12.8 41 8.5 SSE 13 20 7 11 1020.9 - 0.0
18/12:30pm 26.9 25.6 13.6 44 7.9 S 13 17 7 9 1021.2 - 0.0
18/12:00pm 26.2 25.0 14.0 47 7.3 SE 13 20 7 11 1021.6 1021.2 0.0
18/11:30am 25.7 24.2 14.2 49 6.9 ESE 15 24 8 13 1022.1 - 0.0
18/11:00am 24.9 23.7 15.0 54 6.0 SE 15 24 8 13 1022.6 - 0.0
18/10:30am 24.2 22.5 14.6 55 5.7 SE 17 26 9 14 1023.1 - 0.0
18/10:00am 23.2 21.2 15.0 60 4.9 SE 19 24 10 13 1023.3 - 0.0
18/09:30am 22.3 20.8 15.4 65 4.1 ESE 17 24 9 13 1023.4 - 0.0
18/09:00am 21.5 19.5 15.6 69 3.5 ESE 20 26 11 14 1023.7 1023.4 0.0
18/08:30am 20.6 19.1 16.2 76 2.7 SE 19 30 10 16 1023.9 - 0.0
18/08:00am 19.5 17.5 17.5 88 1.2 ESE 24 32 13 17 1023.9 - 0.0
18/07:30am 18.7 17.1 18.4 98 0.2 SE 24 32 13 17 1023.7 - 0.0
18/07:00am 18.0 16.9 17.8 99 0.1 SE 20 28 11 15 1023.4 - 0.0
18/06:30am 17.5 16.4 17.3 99 0.1 SE 19 24 10 13 1023.2 - 0.0
18/06:00am 17.5 16.2 17.3 99 0.1 SE 20 32 11 17 1022.8 1022.5 0.0
18/05:30am 17.3 16.0 17.3 100 0.0 SSE 20 28 11 15 1022.7 - 0.0
18/05:00am 17.3 16.5 17.1 99 0.1 SSE 17 22 9 12 1022.5 - 0.0
18/04:30am 17.7 15.7 17.5 99 0.1 SE 24 35 13 19 1022.2 - 0.0
18/04:00am 17.7 16.2 17.7 100 0.0 SE 22 33 12 18 1022.1 - 0.0
18/03:30am 17.3 15.3 17.3 100 0.0 SSE 24 32 13 17 1021.7 - 0.0
18/03:00am 16.9 16.0 16.9 100 0.0 SSE 17 22 9 12 1021.6 1021.2 0.0
18/02:30am 17.2 15.9 17.2 100 0.0 S 20 28 11 15 1021.2 - 0.0
18/02:00am 16.7 15.4 16.7 100 0.0 S 19 24 10 13 1021.1 - 0.0
18/01:30am 17.1 15.7 16.9 99 0.1 S 20 26 11 14 1021.0 - 0.0
18/01:00am 17.4 15.7 17.2 99 0.1 S 22 30 12 16 1021.0 - 0.0
18/12:30am 17.9 16.0 17.6 98 0.2 S 24 32 13 17 1021.1 - 0.0
18/12:00am 17.8 15.4 14.3 80 2.0 S 20 26 11 14 1021.0 1020.6 0.0
 
Date/Time
WST
Temp
°C
App
Temp
°C
Dew
Point
Rel
Hum
%
Delta-T
°C
Wind Press
QNH
hPa
Press
MSL
hPa
Rain
since 9 am
mm
Dir
 
Spd
km/h
Gust
km/h
Spd
kts
Gust
kts
17/11:30pm 18.2 15.1 11.7 66 3.6 SSW 19 24 10 13 1020.8 - 0.0
17/11:00pm 19.6 15.5 8.6 49 5.8 SSW 20 28 11 15 1020.6 - 0.0
17/10:30pm 18.5 15.2 6.4 45 6.1 NNW 13 13 7 7 1020.1 - 0.0
17/10:00pm 18.6 14.9 6.1 44 6.2 N 15 17 8 9 1020.1 - 0.0
17/09:30pm 19.6 15.5 6.3 42 6.7 N 17 17 9 9 1020.3 - 0.0
17/09:00pm 19.3 15.6 6.4 43 6.5 N 15 17 8 9 1020.5 1020.1 0.0
17/08:30pm 20.1 16.5 6.8 42 6.8 N 15 15 8 8 1020.5 - 0.0
17/08:00pm 20.5 16.8 6.4 40 7.1 N 15 17 8 9 1020.3 - 0.0
17/07:30pm 20.7 16.7 6.6 40 7.2 N 17 17 9 9 1020.2 - 0.0

Other Formats:

Comma delimited format used in spreadsheet applications
http://www.bom.gov.au/fwo/IDW60801/IDW60801.95646.axf

JavaScript Object Notation format (JSON) in row-major order
http://www.bom.gov.au/fwo/IDW60801/IDW60801.95646.json